sensor_id;sensor_type;location;lat;lon;timestamp;P1;durP1;ratioP1;P2;durP2;ratioP2
82030;SDS011;71592;52.178;4.512;2023-11-18T00:01:30;12.68;;;8.13;;
82030;SDS011;71592;52.178;4.512;2023-11-18T00:03:56;11.75;;;7.22;;
82030;SDS011;71592;52.178;4.512;2023-11-18T00:06:22;11.23;;;8.27;;
82030;SDS011;71592;52.178;4.512;2023-11-18T00:08:47;10.60;;;7.28;;
82030;SDS011;71592;52.178;4.512;2023-11-18T00:11:13;14.07;;;9.47;;
82030;SDS011;71592;52.178;4.512;2023-11-18T00:13:38;14.20;;;8.93;;
82030;SDS011;71592;52.178;4.512;2023-11-18T00:16:04;16.40;;;9.35;;
82030;SDS011;71592;52.178;4.512;2023-11-18T00:18:30;13.93;;;9.27;;
82030;SDS011;71592;52.178;4.512;2023-11-18T00:20:57;12.70;;;9.32;;
82030;SDS011;71592;52.178;4.512;2023-11-18T00:23:22;14.48;;;9.52;;
82030;SDS011;71592;52.178;4.512;2023-11-18T00:25:48;13.63;;;9.02;;
82030;SDS011;71592;52.178;4.512;2023-11-18T00:28:13;17.60;;;8.63;;
82030;SDS011;71592;52.178;4.512;2023-11-18T00:30:38;15.57;;;10.47;;
82030;SDS011;71592;52.178;4.512;2023-11-18T00:33:03;15.00;;;9.40;;
82030;SDS011;71592;52.178;4.512;2023-11-18T00:35:29;16.90;;;10.10;;
82030;SDS011;71592;52.178;4.512;2023-11-18T00:37:57;13.45;;;9.60;;
82030;SDS011;71592;52.178;4.512;2023-11-18T00:40:22;14.27;;;9.35;;
82030;SDS011;71592;52.178;4.512;2023-11-18T00:42:48;14.00;;;9.38;;
82030;SDS011;71592;52.178;4.512;2023-11-18T00:45:13;14.45;;;9.10;;
82030;SDS011;71592;52.178;4.512;2023-11-18T00:47:38;13.53;;;9.10;;
82030;SDS011;71592;52.178;4.512;2023-11-18T00:50:06;16.23;;;10.00;;
82030;SDS011;71592;52.178;4.512;2023-11-18T00:52:33;19.08;;;9.65;;
82030;SDS011;71592;52.178;4.512;2023-11-18T00:54:58;14.88;;;10.15;;
82030;SDS011;71592;52.178;4.512;2023-11-18T00:57:23;16.00;;;9.20;;
82030;SDS011;71592;52.178;4.512;2023-11-18T00:59:49;15.83;;;8.77;;
82030;SDS011;71592;52.178;4.512;2023-11-18T01:02:14;14.27;;;9.63;;
82030;SDS011;71592;52.178;4.512;2023-11-18T01:04:40;15.57;;;9.23;;
82030;SDS011;71592;52.178;4.512;2023-11-18T01:07:05;12.80;;;8.83;;
82030;SDS011;71592;52.178;4.512;2023-11-18T01:09:31;16.05;;;9.75;;
82030;SDS011;71592;52.178;4.512;2023-11-18T01:12:01;14.00;;;8.27;;
82030;SDS011;71592;52.178;4.512;2023-11-18T01:14:27;15.63;;;9.93;;
82030;SDS011;71592;52.178;4.512;2023-11-18T01:16:52;16.77;;;9.77;;
82030;SDS011;71592;52.178;4.512;2023-11-18T01:19:17;16.13;;;10.50;;
82030;SDS011;71592;52.178;4.512;2023-11-18T01:21:43;18.48;;;10.10;;
82030;SDS011;71592;52.178;4.512;2023-11-18T01:24:09;16.23;;;9.88;;
82030;SDS011;71592;52.178;4.512;2023-11-18T01:26:34;18.42;;;10.23;;
82030;SDS011;71592;52.178;4.512;2023-11-18T01:29:01;16.65;;;10.13;;
82030;SDS011;71592;52.178;4.512;2023-11-18T01:31:26;15.43;;;9.83;;
82030;SDS011;71592;52.178;4.512;2023-11-18T01:33:52;16.88;;;10.50;;
82030;SDS011;71592;52.178;4.512;2023-11-18T01:36:20;17.65;;;10.43;;
82030;SDS011;71592;52.178;4.512;2023-11-18T01:38:45;15.02;;;10.77;;
82030;SDS011;71592;52.178;4.512;2023-11-18T01:41:11;14.77;;;10.00;;
82030;SDS011;71592;52.178;4.512;2023-11-18T01:43:36;20.45;;;10.90;;
82030;SDS011;71592;52.178;4.512;2023-11-18T01:46:05;18.17;;;11.13;;
82030;SDS011;71592;52.178;4.512;2023-11-18T01:48:32;15.95;;;10.65;;
82030;SDS011;71592;52.178;4.512;2023-11-18T01:51:01;18.05;;;10.13;;
82030;SDS011;71592;52.178;4.512;2023-11-18T01:53:29;18.30;;;11.15;;
82030;SDS011;71592;52.178;4.512;2023-11-18T01:55:54;18.80;;;11.80;;
82030;SDS011;71592;52.178;4.512;2023-11-18T01:58:20;16.95;;;10.88;;
82030;SDS011;71592;52.178;4.512;2023-11-18T02:00:48;16.30;;;11.50;;
82030;SDS011;71592;52.178;4.512;2023-11-18T02:03:16;16.35;;;11.18;;
82030;SDS011;71592;52.178;4.512;2023-11-18T02:05:42;18.45;;;9.23;;
82030;SDS011;71592;52.178;4.512;2023-11-18T02:08:09;15.25;;;10.85;;
82030;SDS011;71592;52.178;4.512;2023-11-18T02:10:35;15.43;;;10.00;;
82030;SDS011;71592;52.178;4.512;2023-11-18T02:13:10;16.55;;;9.55;;
82030;SDS011;71592;52.178;4.512;2023-11-18T02:15:37;14.95;;;8.82;;
82030;SDS011;71592;52.178;4.512;2023-11-18T02:18:03;20.05;;;10.82;;
82030;SDS011;71592;52.178;4.512;2023-11-18T02:20:31;17.30;;;10.73;;
82030;SDS011;71592;52.178;4.512;2023-11-18T02:22:57;13.63;;;9.48;;
82030;SDS011;71592;52.178;4.512;2023-11-18T02:25:23;15.85;;;9.75;;
82030;SDS011;71592;52.178;4.512;2023-11-18T02:27:52;20.67;;;10.93;;
82030;SDS011;71592;52.178;4.512;2023-11-18T02:30:17;16.52;;;10.02;;
82030;SDS011;71592;52.178;4.512;2023-11-18T02:32:45;13.98;;;10.10;;
82030;SDS011;71592;52.178;4.512;2023-11-18T02:35:18;14.60;;;8.82;;
82030;SDS011;71592;52.178;4.512;2023-11-18T02:37:46;15.15;;;8.35;;
82030;SDS011;71592;52.178;4.512;2023-11-18T02:40:15;17.20;;;9.00;;
82030;SDS011;71592;52.178;4.512;2023-11-18T02:42:41;16.35;;;9.57;;
82030;SDS011;71592;52.178;4.512;2023-11-18T02:45:08;14.90;;;9.88;;
82030;SDS011;71592;52.178;4.512;2023-11-18T02:47:33;16.52;;;10.90;;
82030;SDS011;71592;52.178;4.512;2023-11-18T02:49:59;12.93;;;9.17;;
82030;SDS011;71592;52.178;4.512;2023-11-18T02:52:31;16.15;;;10.63;;
82030;SDS011;71592;52.178;4.512;2023-11-18T02:54:56;14.75;;;9.32;;
82030;SDS011;71592;52.178;4.512;2023-11-18T02:57:21;17.33;;;9.48;;
82030;SDS011;71592;52.178;4.512;2023-11-18T02:59:46;14.87;;;9.10;;
82030;SDS011;71592;52.178;4.512;2023-11-18T03:02:14;17.20;;;10.20;;
82030;SDS011;71592;52.178;4.512;2023-11-18T03:04:40;17.75;;;11.45;;
82030;SDS011;71592;52.178;4.512;2023-11-18T03:07:09;17.70;;;10.52;;
82030;SDS011;71592;52.178;4.512;2023-11-18T03:09:34;16.05;;;10.35;;
82030;SDS011;71592;52.178;4.512;2023-11-18T03:12:00;15.23;;;10.30;;
82030;SDS011;71592;52.178;4.512;2023-11-18T03:14:25;16.33;;;10.93;;
82030;SDS011;71592;52.178;4.512;2023-11-18T03:16:50;15.13;;;9.40;;
82030;SDS011;71592;52.178;4.512;2023-11-18T03:19:15;16.03;;;11.03;;
82030;SDS011;71592;52.178;4.512;2023-11-18T03:21:41;14.97;;;9.80;;
82030;SDS011;71592;52.178;4.512;2023-11-18T03:24:08;15.65;;;10.63;;
82030;SDS011;71592;52.178;4.512;2023-11-18T03:26:34;17.50;;;9.50;;
82030;SDS011;71592;52.178;4.512;2023-11-18T03:28:59;15.50;;;10.80;;
82030;SDS011;71592;52.178;4.512;2023-11-18T03:31:24;16.53;;;9.37;;
82030;SDS011;71592;52.178;4.512;2023-11-18T03:33:49;15.40;;;10.80;;
82030;SDS011;71592;52.178;4.512;2023-11-18T03:36:15;16.63;;;10.43;;
82030;SDS011;71592;52.178;4.512;2023-11-18T03:38:42;16.48;;;10.57;;
82030;SDS011;71592;52.178;4.512;2023-11-18T03:41:08;19.17;;;8.90;;
82030;SDS011;71592;52.178;4.512;2023-11-18T03:43:33;19.42;;;10.13;;
82030;SDS011;71592;52.178;4.512;2023-11-18T03:45:58;19.90;;;9.10;;
82030;SDS011;71592;52.178;4.512;2023-11-18T03:48:24;14.53;;;10.50;;
82030;SDS011;71592;52.178;4.512;2023-11-18T03:50:50;13.70;;;9.75;;
82030;SDS011;71592;52.178;4.512;2023-11-18T03:53:15;19.55;;;10.27;;
82030;SDS011;71592;52.178;4.512;2023-11-18T03:55:40;16.40;;;11.90;;
82030;SDS011;71592;52.178;4.512;2023-11-18T03:58:06;16.17;;;11.87;;
82030;SDS011;71592;52.178;4.512;2023-11-18T04:00:32;14.52;;;10.65;;
82030;SDS011;71592;52.178;4.512;2023-11-18T04:03:01;12.98;;;9.35;;
82030;SDS011;71592;52.178;4.512;2023-11-18T04:05:26;17.42;;;11.15;;
82030;SDS011;71592;52.178;4.512;2023-11-18T04:07:52;11.65;;;8.48;;
82030;SDS011;71592;52.178;4.512;2023-11-18T04:10:17;16.20;;;11.23;;
82030;SDS011;71592;52.178;4.512;2023-11-18T04:12:43;14.80;;;9.18;;
82030;SDS011;71592;52.178;4.512;2023-11-18T04:15:11;14.52;;;10.48;;
82030;SDS011;71592;52.178;4.512;2023-11-18T04:17:37;13.80;;;8.20;;
82030;SDS011;71592;52.178;4.512;2023-11-18T04:20:03;14.98;;;10.23;;
82030;SDS011;71592;52.178;4.512;2023-11-18T04:22:33;16.88;;;10.63;;
82030;SDS011;71592;52.178;4.512;2023-11-18T04:24:58;12.10;;;7.87;;
82030;SDS011;71592;52.178;4.512;2023-11-18T04:27:24;16.52;;;8.82;;
82030;SDS011;71592;52.178;4.512;2023-11-18T04:29:49;12.40;;;8.93;;
82030;SDS011;71592;52.178;4.512;2023-11-18T04:32:14;16.50;;;10.13;;
82030;SDS011;71592;52.178;4.512;2023-11-18T04:34:41;16.60;;;10.25;;
82030;SDS011;71592;52.178;4.512;2023-11-18T04:37:08;16.40;;;11.15;;
82030;SDS011;71592;52.178;4.512;2023-11-18T04:39:34;14.63;;;10.10;;
82030;SDS011;71592;52.178;4.512;2023-11-18T04:41:59;13.43;;;9.52;;
82030;SDS011;71592;52.178;4.512;2023-11-18T04:44:26;14.57;;;9.80;;
82030;SDS011;71592;52.178;4.512;2023-11-18T04:46:52;13.25;;;8.43;;
82030;SDS011;71592;52.178;4.512;2023-11-18T04:49:17;16.13;;;10.82;;
82030;SDS011;71592;52.178;4.512;2023-11-18T04:51:42;14.23;;;9.30;;
82030;SDS011;71592;52.178;4.512;2023-11-18T04:54:07;15.53;;;10.23;;
82030;SDS011;71592;52.178;4.512;2023-11-18T04:56:33;14.03;;;8.83;;
82030;SDS011;71592;52.178;4.512;2023-11-18T04:59:00;17.70;;;10.45;;
82030;SDS011;71592;52.178;4.512;2023-11-18T05:01:25;19.13;;;11.67;;
82030;SDS011;71592;52.178;4.512;2023-11-18T05:03:50;14.97;;;11.60;;
82030;SDS011;71592;52.178;4.512;2023-11-18T05:06:15;14.80;;;11.17;;
82030;SDS011;71592;52.178;4.512;2023-11-18T05:08:41;15.67;;;11.23;;
82030;SDS011;71592;52.178;4.512;2023-11-18T05:11:06;19.92;;;10.60;;
82030;SDS011;71592;52.178;4.512;2023-11-18T05:13:32;15.20;;;9.93;;
82030;SDS011;71592;52.178;4.512;2023-11-18T05:15:58;17.20;;;10.57;;
82030;SDS011;71592;52.178;4.512;2023-11-18T05:18:26;16.40;;;9.40;;
82030;SDS011;71592;52.178;4.512;2023-11-18T05:20:54;15.85;;;10.55;;
82030;SDS011;71592;52.178;4.512;2023-11-18T05:23:19;14.97;;;10.60;;
82030;SDS011;71592;52.178;4.512;2023-11-18T05:25:45;17.30;;;9.57;;
82030;SDS011;71592;52.178;4.512;2023-11-18T05:28:10;17.00;;;10.43;;
82030;SDS011;71592;52.178;4.512;2023-11-18T05:30:37;14.85;;;10.02;;
82030;SDS011;71592;52.178;4.512;2023-11-18T05:33:03;15.77;;;9.95;;
82030;SDS011;71592;52.178;4.512;2023-11-18T05:35:32;15.40;;;9.70;;
82030;SDS011;71592;52.178;4.512;2023-11-18T05:37:58;14.55;;;9.93;;
82030;SDS011;71592;52.178;4.512;2023-11-18T05:40:23;18.38;;;10.68;;
82030;SDS011;71592;52.178;4.512;2023-11-18T05:42:50;15.40;;;9.32;;
82030;SDS011;71592;52.178;4.512;2023-11-18T05:45:17;15.73;;;8.90;;
82030;SDS011;71592;52.178;4.512;2023-11-18T05:47:57;16.33;;;10.38;;
82030;SDS011;71592;52.178;4.512;2023-11-18T05:50:23;15.75;;;9.20;;
82030;SDS011;71592;52.178;4.512;2023-11-18T05:52:52;14.43;;;8.90;;
82030;SDS011;71592;52.178;4.512;2023-11-18T05:55:17;13.02;;;8.38;;
82030;SDS011;71592;52.178;4.512;2023-11-18T05:57:42;14.97;;;9.60;;
82030;SDS011;71592;52.178;4.512;2023-11-18T06:00:10;15.55;;;9.55;;
82030;SDS011;71592;52.178;4.512;2023-11-18T06:02:37;12.15;;;9.88;;
82030;SDS011;71592;52.178;4.512;2023-11-18T06:05:04;14.30;;;10.13;;
82030;SDS011;71592;52.178;4.512;2023-11-18T06:07:30;14.30;;;10.00;;
82030;SDS011;71592;52.178;4.512;2023-11-18T06:09:55;15.45;;;9.82;;
82030;SDS011;71592;52.178;4.512;2023-11-18T06:12:22;15.10;;;10.35;;
82030;SDS011;71592;52.178;4.512;2023-11-18T06:14:48;16.10;;;10.60;;
82030;SDS011;71592;52.178;4.512;2023-11-18T06:17:13;16.52;;;11.45;;
82030;SDS011;71592;52.178;4.512;2023-11-18T06:19:39;17.27;;;9.63;;
82030;SDS011;71592;52.178;4.512;2023-11-18T06:22:04;16.50;;;10.60;;
82030;SDS011;71592;52.178;4.512;2023-11-18T06:24:30;12.70;;;9.88;;
82030;SDS011;71592;52.178;4.512;2023-11-18T06:26:59;16.40;;;10.63;;
82030;SDS011;71592;52.178;4.512;2023-11-18T06:29:24;16.30;;;9.77;;
82030;SDS011;71592;52.178;4.512;2023-11-18T06:31:50;11.63;;;7.32;;
82030;SDS011;71592;52.178;4.512;2023-11-18T06:34:15;17.80;;;9.63;;
82030;SDS011;71592;52.178;4.512;2023-11-18T06:36:40;14.33;;;9.47;;
82030;SDS011;71592;52.178;4.512;2023-11-18T06:39:05;16.88;;;9.63;;
82030;SDS011;71592;52.178;4.512;2023-11-18T06:41:32;14.10;;;10.40;;
82030;SDS011;71592;52.178;4.512;2023-11-18T06:44:03;12.45;;;8.38;;
82030;SDS011;71592;52.178;4.512;2023-11-18T06:46:34;16.35;;;12.40;;
82030;SDS011;71592;52.178;4.512;2023-11-18T06:49:01;13.65;;;9.70;;
82030;SDS011;71592;52.178;4.512;2023-11-18T06:51:31;17.58;;;10.63;;
82030;SDS011;71592;52.178;4.512;2023-11-18T06:54:00;18.60;;;10.50;;
82030;SDS011;71592;52.178;4.512;2023-11-18T06:56:26;16.17;;;10.77;;
82030;SDS011;71592;52.178;4.512;2023-11-18T06:58:52;13.82;;;9.00;;
82030;SDS011;71592;52.178;4.512;2023-11-18T07:01:17;15.05;;;11.00;;
82030;SDS011;71592;52.178;4.512;2023-11-18T07:03:43;14.88;;;11.20;;
82030;SDS011;71592;52.178;4.512;2023-11-18T07:06:09;16.00;;;9.80;;
82030;SDS011;71592;52.178;4.512;2023-11-18T07:08:35;14.52;;;9.90;;
82030;SDS011;71592;52.178;4.512;2023-11-18T07:11:00;16.50;;;9.88;;
82030;SDS011;71592;52.178;4.512;2023-11-18T07:13:26;16.85;;;9.18;;
82030;SDS011;71592;52.178;4.512;2023-11-18T07:15:51;13.43;;;10.80;;
82030;SDS011;71592;52.178;4.512;2023-11-18T07:18:18;13.48;;;8.00;;
82030;SDS011;71592;52.178;4.512;2023-11-18T07:20:47;14.02;;;9.10;;
82030;SDS011;71592;52.178;4.512;2023-11-18T07:23:12;12.60;;;7.25;;
82030;SDS011;71592;52.178;4.512;2023-11-18T07:25:37;14.27;;;9.47;;
82030;SDS011;71592;52.178;4.512;2023-11-18T07:28:02;13.77;;;8.57;;
82030;SDS011;71592;52.178;4.512;2023-11-18T07:30:30;15.88;;;9.52;;
82030;SDS011;71592;52.178;4.512;2023-11-18T07:32:55;16.80;;;10.67;;
82030;SDS011;71592;52.178;4.512;2023-11-18T07:35:24;17.77;;;10.63;;
82030;SDS011;71592;52.178;4.512;2023-11-18T07:37:49;20.80;;;9.80;;
82030;SDS011;71592;52.178;4.512;2023-11-18T07:40:14;15.20;;;9.17;;
82030;SDS011;71592;52.178;4.512;2023-11-18T07:42:47;16.23;;;10.38;;
82030;SDS011;71592;52.178;4.512;2023-11-18T07:45:12;17.73;;;10.70;;
82030;SDS011;71592;52.178;4.512;2023-11-18T07:47:43;15.93;;;9.60;;
82030;SDS011;71592;52.178;4.512;2023-11-18T07:50:08;22.83;;;10.00;;
82030;SDS011;71592;52.178;4.512;2023-11-18T07:52:37;16.02;;;9.55;;
82030;SDS011;71592;52.178;4.512;2023-11-18T07:55:02;15.07;;;8.40;;
82030;SDS011;71592;52.178;4.512;2023-11-18T07:57:29;13.98;;;9.15;;
82030;SDS011;71592;52.178;4.512;2023-11-18T07:59:54;14.63;;;8.97;;
82030;SDS011;71592;52.178;4.512;2023-11-18T08:02:19;14.57;;;8.93;;
82030;SDS011;71592;52.178;4.512;2023-11-18T08:04:45;14.15;;;7.93;;
82030;SDS011;71592;52.178;4.512;2023-11-18T08:07:10;17.40;;;8.83;;
82030;SDS011;71592;52.178;4.512;2023-11-18T08:09:35;15.27;;;8.93;;
82030;SDS011;71592;52.178;4.512;2023-11-18T08:12:04;19.88;;;9.93;;
82030;SDS011;71592;52.178;4.512;2023-11-18T08:14:31;16.83;;;9.80;;
82030;SDS011;71592;52.178;4.512;2023-11-18T08:16:56;14.60;;;8.83;;
82030;SDS011;71592;52.178;4.512;2023-11-18T08:19:21;13.43;;;8.20;;
82030;SDS011;71592;52.178;4.512;2023-11-18T08:21:48;18.67;;;8.05;;
82030;SDS011;71592;52.178;4.512;2023-11-18T08:24:13;16.50;;;8.80;;
82030;SDS011;71592;52.178;4.512;2023-11-18T08:26:38;11.37;;;7.40;;
82030;SDS011;71592;52.178;4.512;2023-11-18T08:29:04;10.18;;;7.57;;
82030;SDS011;71592;52.178;4.512;2023-11-18T08:31:29;13.63;;;9.18;;
82030;SDS011;71592;52.178;4.512;2023-11-18T08:33:55;14.45;;;7.97;;
82030;SDS011;71592;52.178;4.512;2023-11-18T08:36:21;16.08;;;9.20;;
82030;SDS011;71592;52.178;4.512;2023-11-18T08:38:51;13.55;;;8.82;;
82030;SDS011;71592;52.178;4.512;2023-11-18T08:41:17;13.70;;;6.60;;
82030;SDS011;71592;52.178;4.512;2023-11-18T08:43:42;16.25;;;9.13;;
82030;SDS011;71592;52.178;4.512;2023-11-18T08:46:07;13.10;;;7.80;;
82030;SDS011;71592;52.178;4.512;2023-11-18T08:48:33;15.00;;;9.13;;
82030;SDS011;71592;52.178;4.512;2023-11-18T08:50:59;16.58;;;8.65;;
82030;SDS011;71592;52.178;4.512;2023-11-18T08:53:25;11.57;;;6.25;;
82030;SDS011;71592;52.178;4.512;2023-11-18T08:55:51;15.15;;;8.65;;
82030;SDS011;71592;52.178;4.512;2023-11-18T08:58:19;13.20;;;7.43;;
82030;SDS011;71592;52.178;4.512;2023-11-18T09:00:44;18.02;;;8.20;;
82030;SDS011;71592;52.178;4.512;2023-11-18T09:03:12;14.25;;;7.88;;
82030;SDS011;71592;52.178;4.512;2023-11-18T09:05:54;13.27;;;6.95;;
82030;SDS011;71592;52.178;4.512;2023-11-18T09:08:26;16.30;;;8.00;;
82030;SDS011;71592;52.178;4.512;2023-11-18T09:10:52;11.20;;;7.60;;
82030;SDS011;71592;52.178;4.512;2023-11-18T09:13:19;18.42;;;7.82;;
82030;SDS011;71592;52.178;4.512;2023-11-18T09:15:45;14.30;;;8.13;;
82030;SDS011;71592;52.178;4.512;2023-11-18T09:18:12;10.15;;;7.07;;
82030;SDS011;71592;52.178;4.512;2023-11-18T09:20:37;12.90;;;7.30;;
82030;SDS011;71592;52.178;4.512;2023-11-18T09:23:04;11.10;;;7.63;;
82030;SDS011;71592;52.178;4.512;2023-11-18T09:25:30;18.90;;;8.45;;
82030;SDS011;71592;52.178;4.512;2023-11-18T09:27:57;13.45;;;9.40;;
82030;SDS011;71592;52.178;4.512;2023-11-18T09:30:23;14.32;;;7.57;;
82030;SDS011;71592;52.178;4.512;2023-11-18T09:32:49;11.75;;;7.43;;
82030;SDS011;71592;52.178;4.512;2023-11-18T09:35:16;15.45;;;8.73;;
82030;SDS011;71592;52.178;4.512;2023-11-18T09:37:43;12.35;;;6.95;;
82030;SDS011;71592;52.178;4.512;2023-11-18T09:40:09;12.00;;;6.97;;
82030;SDS011;71592;52.178;4.512;2023-11-18T09:42:38;14.57;;;6.68;;
82030;SDS011;71592;52.178;4.512;2023-11-18T09:45:04;14.15;;;7.47;;
82030;SDS011;71592;52.178;4.512;2023-11-18T09:47:31;13.30;;;7.45;;
82030;SDS011;71592;52.178;4.512;2023-11-18T09:49:57;11.23;;;6.72;;
82030;SDS011;71592;52.178;4.512;2023-11-18T09:52:24;13.00;;;6.63;;
82030;SDS011;71592;52.178;4.512;2023-11-18T09:59:59;12.93;;;6.60;;
82030;SDS011;71592;52.178;4.512;2023-11-18T10:02:35;7.60;;;6.53;;
82030;SDS011;71592;52.178;4.512;2023-11-18T10:05:04;11.85;;;6.50;;
82030;SDS011;71592;52.178;4.512;2023-11-18T10:07:37;9.88;;;5.63;;
82030;SDS011;71592;52.178;4.512;2023-11-18T10:10:03;11.40;;;6.68;;
82030;SDS011;71592;52.178;4.512;2023-11-18T10:12:29;9.73;;;5.88;;
82030;SDS011;71592;52.178;4.512;2023-11-18T10:14:54;8.73;;;5.70;;
82030;SDS011;71592;52.178;4.512;2023-11-18T10:17:21;6.75;;;4.90;;
82030;SDS011;71592;52.178;4.512;2023-11-18T10:22:28;9.63;;;6.40;;
82030;SDS011;71592;52.178;4.512;2023-11-18T10:24:57;9.60;;;5.53;;
82030;SDS011;71592;52.178;4.512;2023-11-18T10:27:26;7.97;;;5.68;;
82030;SDS011;71592;52.178;4.512;2023-11-18T10:29:55;9.50;;;4.95;;
82030;SDS011;71592;52.178;4.512;2023-11-18T10:32:20;14.05;;;5.13;;
82030;SDS011;71592;52.178;4.512;2023-11-18T10:34:53;9.88;;;5.60;;
82030;SDS011;71592;52.178;4.512;2023-11-18T10:37:19;11.50;;;5.78;;
82030;SDS011;71592;52.178;4.512;2023-11-18T10:39:49;8.63;;;5.25;;
82030;SDS011;71592;52.178;4.512;2023-11-18T10:42:17;8.38;;;4.90;;
82030;SDS011;71592;52.178;4.512;2023-11-18T10:44:55;9.85;;;5.18;;
82030;SDS011;71592;52.178;4.512;2023-11-18T10:47:24;11.05;;;5.22;;
82030;SDS011;71592;52.178;4.512;2023-11-18T10:49:51;8.20;;;5.13;;
82030;SDS011;71592;52.178;4.512;2023-11-18T10:52:21;8.77;;;4.95;;
82030;SDS011;71592;52.178;4.512;2023-11-18T10:54:52;6.00;;;5.00;;
82030;SDS011;71592;52.178;4.512;2023-11-18T10:57:19;13.80;;;4.72;;
82030;SDS011;71592;52.178;4.512;2023-11-18T11:00:00;9.55;;;6.07;;
82030;SDS011;71592;52.178;4.512;2023-11-18T11:02:29;8.50;;;5.15;;
82030;SDS011;71592;52.178;4.512;2023-11-18T11:04:59;12.93;;;6.13;;
82030;SDS011;71592;52.178;4.512;2023-11-18T11:07:25;7.55;;;4.47;;
82030;SDS011;71592;52.178;4.512;2023-11-18T11:09:51;7.35;;;4.70;;
82030;SDS011;71592;52.178;4.512;2023-11-18T11:12:21;10.32;;;4.65;;
82030;SDS011;71592;52.178;4.512;2023-11-18T11:14:57;6.10;;;3.72;;
82030;SDS011;71592;52.178;4.512;2023-11-18T11:17:24;5.97;;;3.80;;
82030;SDS011;71592;52.178;4.512;2023-11-18T11:20:07;6.90;;;4.78;;
82030;SDS011;71592;52.178;4.512;2023-11-18T11:25:21;6.53;;;4.63;;
82030;SDS011;71592;52.178;4.512;2023-11-18T11:28:02;10.77;;;6.13;;
82030;SDS011;71592;52.178;4.512;2023-11-18T11:30:39;8.95;;;4.55;;
82030;SDS011;71592;52.178;4.512;2023-11-18T11:33:13;9.48;;;4.32;;
82030;SDS011;71592;52.178;4.512;2023-11-18T11:35:42;10.00;;;4.90;;
82030;SDS011;71592;52.178;4.512;2023-11-18T11:38:15;6.45;;;4.13;;
82030;SDS011;71592;52.178;4.512;2023-11-18T11:40:42;5.75;;;4.53;;
82030;SDS011;71592;52.178;4.512;2023-11-18T11:43:08;8.00;;;5.20;;
82030;SDS011;71592;52.178;4.512;2023-11-18T11:45:38;6.72;;;4.70;;
82030;SDS011;71592;52.178;4.512;2023-11-18T11:48:05;7.13;;;3.85;;
82030;SDS011;71592;52.178;4.512;2023-11-18T11:53:16;5.07;;;3.67;;
82030;SDS011;71592;52.178;4.512;2023-11-18T11:55:49;6.50;;;5.47;;
82030;SDS011;71592;52.178;4.512;2023-11-18T11:58:26;6.25;;;4.55;;
82030;SDS011;71592;52.178;4.512;2023-11-18T12:00:52;7.05;;;5.10;;
82030;SDS011;71592;52.178;4.512;2023-11-18T12:03:21;5.38;;;4.20;;
82030;SDS011;71592;52.178;4.512;2023-11-18T12:05:49;7.75;;;4.43;;
82030;SDS011;71592;52.178;4.512;2023-11-18T12:08:14;6.18;;;4.18;;
82030;SDS011;71592;52.178;4.512;2023-11-18T12:10:39;7.27;;;4.57;;
82030;SDS011;71592;52.178;4.512;2023-11-18T12:13:12;6.88;;;4.15;;
82030;SDS011;71592;52.178;4.512;2023-11-18T12:18:29;7.03;;;4.03;;
82030;SDS011;71592;52.178;4.512;2023-11-18T12:20:59;5.78;;;4.57;;
82030;SDS011;71592;52.178;4.512;2023-11-18T12:23:27;5.55;;;3.05;;
82030;SDS011;71592;52.178;4.512;2023-11-18T12:25:55;5.65;;;4.05;;
82030;SDS011;71592;52.178;4.512;2023-11-18T12:28:28;7.28;;;3.75;;
82030;SDS011;71592;52.178;4.512;2023-11-18T12:30:55;5.88;;;4.75;;
82030;SDS011;71592;52.178;4.512;2023-11-18T12:33:24;4.03;;;3.47;;
82030;SDS011;71592;52.178;4.512;2023-11-18T12:41:04;3.60;;;2.92;;
82030;SDS011;71592;52.178;4.512;2023-11-18T12:51:21;3.92;;;2.90;;
82030;SDS011;71592;52.178;4.512;2023-11-18T12:53:50;4.20;;;3.42;;
82030;SDS011;71592;52.178;4.512;2023-11-18T12:56:18;3.83;;;2.92;;
82030;SDS011;71592;52.178;4.512;2023-11-18T12:58:45;4.05;;;2.70;;
82030;SDS011;71592;52.178;4.512;2023-11-18T13:01:10;3.97;;;2.85;;
82030;SDS011;71592;52.178;4.512;2023-11-18T13:03:39;4.03;;;2.80;;
82030;SDS011;71592;52.178;4.512;2023-11-18T13:06:07;3.30;;;2.75;;
82030;SDS011;71592;52.178;4.512;2023-11-18T13:08:33;2.97;;;2.63;;
82030;SDS011;71592;52.178;4.512;2023-11-18T13:10:58;3.88;;;2.95;;
82030;SDS011;71592;52.178;4.512;2023-11-18T13:13:29;3.60;;;2.83;;
82030;SDS011;71592;52.178;4.512;2023-11-18T13:15:55;4.45;;;2.67;;
82030;SDS011;71592;52.178;4.512;2023-11-18T13:18:20;2.83;;;2.20;;
82030;SDS011;71592;52.178;4.512;2023-11-18T13:20:58;4.22;;;3.83;;
82030;SDS011;71592;52.178;4.512;2023-11-18T13:23:26;3.03;;;2.10;;
82030;SDS011;71592;52.178;4.512;2023-11-18T13:25:58;3.10;;;2.53;;
82030;SDS011;71592;52.178;4.512;2023-11-18T13:28:28;2.97;;;2.28;;
82030;SDS011;71592;52.178;4.512;2023-11-18T13:30:54;3.83;;;2.20;;
82030;SDS011;71592;52.178;4.512;2023-11-18T13:33:20;3.33;;;2.95;;
82030;SDS011;71592;52.178;4.512;2023-11-18T13:35:46;3.20;;;2.05;;
82030;SDS011;71592;52.178;4.512;2023-11-18T13:38:11;2.95;;;2.38;;
82030;SDS011;71592;52.178;4.512;2023-11-18T13:40:44;3.63;;;2.40;;
82030;SDS011;71592;52.178;4.512;2023-11-18T13:43:09;3.67;;;2.63;;
82030;SDS011;71592;52.178;4.512;2023-11-18T13:45:34;5.10;;;4.80;;
82030;SDS011;71592;52.178;4.512;2023-11-18T13:48:01;3.80;;;2.42;;
82030;SDS011;71592;52.178;4.512;2023-11-18T13:50:27;2.90;;;1.95;;
82030;SDS011;71592;52.178;4.512;2023-11-18T13:52:52;3.38;;;2.40;;
82030;SDS011;71592;52.178;4.512;2023-11-18T13:55:18;3.40;;;2.78;;
82030;SDS011;71592;52.178;4.512;2023-11-18T13:57:50;2.95;;;1.98;;
82030;SDS011;71592;52.178;4.512;2023-11-18T14:00:16;4.03;;;2.25;;
82030;SDS011;71592;52.178;4.512;2023-11-18T14:02:42;3.22;;;2.30;;
82030;SDS011;71592;52.178;4.512;2023-11-18T14:05:16;3.70;;;2.60;;
82030;SDS011;71592;52.178;4.512;2023-11-18T14:07:42;3.97;;;2.85;;
82030;SDS011;71592;52.178;4.512;2023-11-18T14:10:08;3.13;;;2.30;;
82030;SDS011;71592;52.178;4.512;2023-11-18T14:12:38;2.78;;;2.33;;
82030;SDS011;71592;52.178;4.512;2023-11-18T14:15:03;3.75;;;2.20;;
82030;SDS011;71592;52.178;4.512;2023-11-18T14:17:30;3.22;;;2.25;;
82030;SDS011;71592;52.178;4.512;2023-11-18T14:19:55;3.50;;;2.90;;
82030;SDS011;71592;52.178;4.512;2023-11-18T14:22:23;3.73;;;2.30;;
82030;SDS011;71592;52.178;4.512;2023-11-18T14:24:48;2.88;;;2.30;;
82030;SDS011;71592;52.178;4.512;2023-11-18T14:27:13;3.63;;;2.40;;
82030;SDS011;71592;52.178;4.512;2023-11-18T14:29:39;3.37;;;2.00;;
82030;SDS011;71592;52.178;4.512;2023-11-18T14:32:04;3.10;;;2.10;;
82030;SDS011;71592;52.178;4.512;2023-11-18T14:34:31;3.28;;;2.58;;
82030;SDS011;71592;52.178;4.512;2023-11-18T14:36:58;3.37;;;2.60;;
82030;SDS011;71592;52.178;4.512;2023-11-18T14:39:25;2.88;;;2.35;;
82030;SDS011;71592;52.178;4.512;2023-11-18T14:41:51;4.63;;;2.85;;
82030;SDS011;71592;52.178;4.512;2023-11-18T14:44:18;2.63;;;2.42;;
82030;SDS011;71592;52.178;4.512;2023-11-18T14:46:43;3.10;;;2.43;;
82030;SDS011;71592;52.178;4.512;2023-11-18T14:49:10;3.08;;;2.40;;
82030;SDS011;71592;52.178;4.512;2023-11-18T14:51:35;2.67;;;2.42;;
82030;SDS011;71592;52.178;4.512;2023-11-18T14:54:01;3.10;;;2.13;;
82030;SDS011;71592;52.178;4.512;2023-11-18T14:56:26;3.03;;;2.30;;
82030;SDS011;71592;52.178;4.512;2023-11-18T14:58:51;4.45;;;4.15;;
82030;SDS011;71592;52.178;4.512;2023-11-18T15:01:17;2.83;;;1.90;;
82030;SDS011;71592;52.178;4.512;2023-11-18T15:03:43;3.38;;;2.40;;